Time;durP1;ratioP1;P1;durP2;ratioP2;P2;SDS_P1;SDS_P2;PMS_P1;PMS_P2;Temp;Humidity;BMP_temperature;BMP_pressure;BME280_temperature;BME280_humidity;BME280_pressure;Samples;Min_cycle;Max_cycle;Signal;HPM_P1;HPM_P2
2022/10/07 00:01:17;;;;;;;9.23;5.07;;;9.10;99.90;;;;;;5046203;28;20184;-69
2022/10/07 00:03:46;;;;;;;6.73;4.80;;;9.10;99.90;;;;;;5057577;28;20200;-69
2022/10/07 00:06:16;;;;;;;5.90;5.00;;;9.20;99.90;;;;;;5045136;28;20468;-69
2022/10/07 00:08:47;;;;;;;9.77;4.78;;;9.20;99.90;;;;;;5048828;28;20409;-69
2022/10/07 00:11:17;;;;;;;12.15;4.53;;;9.10;99.90;;;;;;5042068;28;20193;-69
2022/10/07 00:13:50;;;;;;;13.93;4.95;;;9.10;99.90;;;;;;5040649;28;20239;-68
2022/10/07 00:16:23;;;;;;;7.25;4.05;;;9.10;99.90;;;;;;5061908;28;20212;-69
2022/10/07 00:18:53;;;;;;;16.38;4.95;;;9.10;99.90;;;;;;5043236;28;20196;-69
2022/10/07 00:21:22;;;;;;;11.15;4.95;;;9.00;99.90;;;;;;5032999;28;20284;-69
2022/10/07 00:23:51;;;;;;;5.45;4.95;;;8.90;99.90;;;;;;5037172;28;20197;-69
2022/10/07 00:26:22;;;;;;;5.60;4.85;;;8.90;99.90;;;;;;5047238;28;20630;-70
2022/10/07 00:28:52;;;;;;;9.52;4.50;;;8.80;99.90;;;;;;5050832;28;20192;-70
2022/10/07 00:31:23;;;;;;;5.13;4.70;;;8.90;99.90;;;;;;5047110;28;20192;-70
2022/10/07 00:33:52;;;;;;;15.60;5.32;;;8.80;99.90;;;;;;5052785;28;20250;-69
2022/10/07 00:36:23;;;;;;;6.23;4.07;;;8.80;99.90;;;;;;5053700;28;20681;-70
2022/10/07 00:38:54;;;;;;;9.80;5.40;;;8.90;99.90;;;;;;5038896;28;20554;-70
2022/10/07 00:41:26;;;;;;;14.30;5.10;;;8.80;99.90;;;;;;5052939;28;20458;-69
2022/10/07 00:43:57;;;;;;;7.13;5.35;;;8.80;99.90;;;;;;5044979;28;20674;-69
2022/10/07 00:46:31;;;;;;;5.47;4.63;;;8.90;99.90;;;;;;5038179;28;20213;-70
2022/10/07 00:49:02;;;;;;;7.85;5.45;;;8.70;99.90;;;;;;5037885;28;20201;-70
2022/10/07 00:51:33;;;;;;;9.20;4.80;;;8.80;99.90;;;;;;5047354;28;20193;-70
2022/10/07 00:54:03;;;;;;;5.13;4.60;;;8.80;99.90;;;;;;5051306;28;20199;-69
2022/10/07 00:56:33;;;;;;;9.15;4.93;;;8.70;99.90;;;;;;5049820;28;20209;-70
2022/10/07 00:59:04;;;;;;;9.55;4.97;;;8.80;99.90;;;;;;5034913;28;20259;-71
2022/10/07 01:01:33;;;;;;;8.57;4.70;;;8.80;99.90;;;;;;5030140;28;20170;-72
2022/10/07 01:04:04;;;;;;;9.53;4.80;;;8.80;99.90;;;;;;5030947;28;20184;-70
2022/10/07 01:06:32;;;;;;;6.65;4.57;;;8.90;99.90;;;;;;5068533;28;20470;-71
2022/10/07 01:09:01;;;;;;;5.13;4.40;;;8.80;99.90;;;;;;5070262;28;20584;-72
2022/10/07 01:11:40;;;;;;;10.95;4.18;;;8.90;99.90;;;;;;5070023;28;20708;-71
2022/10/07 01:14:17;;;;;;;4.82;3.65;;;8.90;99.90;;;;;;5070415;28;20222;-71
2022/10/07 01:16:54;;;;;;;7.13;3.67;;;9.00;99.90;;;;;;5069047;28;20215;-72
2022/10/07 01:19:39;;;;;;;14.57;4.60;;;9.10;99.90;;;;;;5068576;28;20180;-70
2022/10/07 01:22:19;;;;;;;11.38;4.18;;;9.10;99.90;;;;;;5068099;28;20192;-71
2022/10/07 01:25:02;;;;;;;8.48;4.60;;;9.10;99.90;;;;;;5069522;28;20588;-71
2022/10/07 01:27:35;;;;;;;8.68;3.80;;;9.00;99.90;;;;;;5051062;28;20196;-71
2022/10/07 01:30:06;;;;;;;7.70;4.40;;;9.00;99.90;;;;;;5048289;28;20187;-71
2022/10/07 01:32:39;;;;;;;8.20;4.10;;;9.00;99.90;;;;;;5049634;28;20502;-70
2022/10/07 01:35:11;;;;;;;7.55;3.92;;;8.90;99.90;;;;;;5049943;28;20211;-71
2022/10/07 01:37:44;;;;;;;8.48;4.00;;;8.90;99.90;;;;;;5049643;28;20829;-71
2022/10/07 01:40:18;;;;;;;10.02;5.47;;;9.00;99.90;;;;;;5059733;28;20558;-70
2022/10/07 01:42:50;;;;;;;12.20;4.40;;;8.80;99.90;;;;;;5069866;28;20183;-72
2022/10/07 01:45:20;;;;;;;4.05;3.70;;;8.90;99.90;;;;;;5064845;28;20641;-71
2022/10/07 01:47:49;;;;;;;14.15;4.88;;;8.80;99.90;;;;;;5050118;28;20189;-72
2022/10/07 01:50:23;;;;;;;10.52;4.28;;;8.80;99.90;;;;;;5057541;28;20675;-69
2022/10/07 01:53:05;;;;;;;6.70;3.67;;;8.90;99.90;;;;;;5065253;28;20208;-70
2022/10/07 01:55:51;;;;;;;6.53;4.78;;;9.00;99.90;;;;;;5067223;28;20262;-71
2022/10/07 01:58:32;;;;;;;6.93;4.22;;;8.90;99.90;;;;;;5079240;28;20267;-71
2022/10/07 02:01:12;;;;;;;9.93;3.75;;;8.80;99.90;;;;;;5045200;28;20270;-71
2022/10/07 02:03:59;;;;;;;5.07;3.83;;;8.70;99.90;;;;;;5057585;28;20617;-71
2022/10/07 02:06:36;;;;;;;5.78;3.75;;;8.50;99.90;;;;;;5043054;28;20726;-71
2022/10/07 02:09:15;;;;;;;7.68;3.58;;;8.50;99.90;;;;;;5059929;28;20196;-71
2022/10/07 02:11:49;;;;;;;8.48;5.35;;;8.60;99.90;;;;;;5063625;28;20202;-71
2022/10/07 02:14:25;;;;;;;7.05;4.35;;;8.60;99.90;;;;;;5059607;28;20556;-71
2022/10/07 02:16:59;;;;;;;6.35;4.10;;;8.60;99.90;;;;;;5042364;28;20249;-70
2022/10/07 02:19:32;;;;;;;10.55;4.78;;;8.60;99.90;;;;;;5048853;28;20184;-71
2022/10/07 02:22:02;;;;;;;7.20;4.15;;;8.50;99.90;;;;;;5050919;28;20680;-72
2022/10/07 02:24:34;;;;;;;5.63;4.03;;;8.50;99.90;;;;;;5046707;28;20221;-70
2022/10/07 02:27:10;;;;;;;7.50;4.15;;;8.50;99.90;;;;;;5047912;28;20204;-70
2022/10/07 02:29:44;;;;;;;5.32;4.05;;;8.50;99.90;;;;;;5041266;28;20621;-70
2022/10/07 02:32:17;;;;;;;8.02;4.32;;;8.50;99.90;;;;;;5052823;28;20196;-71
2022/10/07 02:34:52;;;;;;;8.73;4.75;;;8.50;99.90;;;;;;5072820;28;20215;-71
2022/10/07 02:37:23;;;;;;;8.55;4.38;;;8.70;99.90;;;;;;5069538;28;20266;-71
2022/10/07 02:39:53;;;;;;;7.05;4.50;;;8.70;99.90;;;;;;5053778;28;20227;-72
2022/10/07 02:42:27;;;;;;;6.05;3.92;;;8.70;99.90;;;;;;5044331;28;20266;-69
2022/10/07 02:45:01;;;;;;;6.18;4.10;;;8.80;99.90;;;;;;5050699;28;20220;-70
2022/10/07 02:47:34;;;;;;;5.63;4.28;;;8.70;99.90;;;;;;5047144;28;20205;-71
2022/10/07 02:50:07;;;;;;;5.70;3.75;;;8.60;99.90;;;;;;5049163;28;20514;-70
2022/10/07 02:52:37;;;;;;;5.40;3.30;;;8.50;99.90;;;;;;5052660;28;20596;-69
2022/10/07 02:55:09;;;;;;;7.10;3.38;;;8.40;99.90;;;;;;5038421;28;20231;-71
2022/10/07 02:57:40;;;;;;;6.30;4.40;;;8.30;99.90;;;;;;5054379;28;20216;-70
2022/10/07 03:00:13;;;;;;;4.88;3.55;;;8.20;99.90;;;;;;5053796;28;20211;-72
2022/10/07 03:02:51;;;;;;;8.77;3.92;;;8.30;99.90;;;;;;5054656;28;20639;-71
2022/10/07 03:05:24;;;;;;;5.40;4.07;;;8.20;99.90;;;;;;5053098;28;20299;-71
2022/10/07 03:07:59;;;;;;;3.85;3.33;;;8.20;99.90;;;;;;5052248;28;20235;-71
2022/10/07 03:10:28;;;;;;;5.53;3.55;;;8.30;99.90;;;;;;5052093;28;20192;-72
2022/10/07 03:12:57;;;;;;;9.98;4.40;;;8.40;99.90;;;;;;5044332;28;20207;-71
2022/10/07 03:15:27;;;;;;;5.55;4.07;;;8.40;99.90;;;;;;5052320;28;20231;-72
2022/10/07 03:17:57;;;;;;;7.72;3.80;;;8.50;99.90;;;;;;5034957;28;20220;-71
2022/10/07 03:20:27;;;;;;;7.68;3.28;;;8.40;99.90;;;;;;5031203;28;20189;-71
2022/10/07 03:22:56;;;;;;;9.10;4.35;;;8.40;99.90;;;;;;5033211;28;20547;-73
2022/10/07 03:25:25;;;;;;;4.55;3.60;;;8.50;99.90;;;;;;5031469;28;20667;-71
2022/10/07 03:27:56;;;;;;;7.90;3.63;;;8.50;99.90;;;;;;5032856;28;20194;-71
2022/10/07 03:30:26;;;;;;;4.40;4.00;;;8.40;99.90;;;;;;5039115;28;20598;-71
2022/10/07 03:32:56;;;;;;;9.43;4.20;;;8.40;99.90;;;;;;5071255;28;20655;-71
2022/10/07 03:35:24;;;;;;;13.45;4.28;;;8.40;99.90;;;;;;5071042;28;20307;-72
2022/10/07 03:37:53;;;;;;;7.30;3.78;;;8.40;99.90;;;;;;5070820;28;20294;-71
2022/10/07 03:40:22;;;;;;;5.15;3.20;;;8.40;99.90;;;;;;5071023;28;20250;-71
2022/10/07 03:42:51;;;;;;;8.13;4.45;;;8.40;99.90;;;;;;5044259;28;20275;-71
2022/10/07 03:45:19;;;;;;;12.52;4.80;;;8.50;99.90;;;;;;5030822;28;20225;-71
2022/10/07 03:47:50;;;;;;;5.95;3.88;;;8.50;99.90;;;;;;5033587;28;20220;-71
2022/10/07 03:50:19;;;;;;;5.97;4.38;;;8.40;99.90;;;;;;5040616;28;20240;-72
2022/10/07 03:52:49;;;;;;;6.30;3.55;;;8.30;99.90;;;;;;5035216;28;20378;-70
2022/10/07 03:55:18;;;;;;;5.47;4.32;;;8.40;99.90;;;;;;5052031;28;20766;-70
2022/10/07 03:57:49;;;;;;;6.70;4.75;;;8.40;99.90;;;;;;5051793;28;20550;-69
2022/10/07 04:00:26;;;;;;;8.55;3.80;;;8.40;99.90;;;;;;5046443;28;20553;-69
2022/10/07 04:02:58;;;;;;;9.90;4.80;;;8.50;99.90;;;;;;5038387;28;20291;-69
2022/10/07 04:05:28;;;;;;;6.30;4.70;;;8.40;99.90;;;;;;5056836;28;20267;-70
2022/10/07 04:07:57;;;;;;;6.43;4.00;;;8.40;99.90;;;;;;5038115;28;20217;-70
2022/10/07 04:10:26;;;;;;;7.60;3.92;;;8.40;99.90;;;;;;5054254;28;20180;-70
2022/10/07 04:12:55;;;;;;;12.00;5.43;;;8.40;99.90;;;;;;5051561;28;20731;-70
2022/10/07 04:15:24;;;;;;;20.85;5.30;;;8.40;99.90;;;;;;5057873;28;20679;-70
2022/10/07 04:17:57;;;;;;;6.53;4.32;;;8.20;99.90;;;;;;5051365;28;20216;-70
2022/10/07 04:20:28;;;;;;;6.30;4.00;;;8.10;99.90;;;;;;5050519;28;20196;-69
2022/10/07 04:22:57;;;;;;;5.93;4.50;;;8.10;99.90;;;;;;5038089;28;20619;-69
2022/10/07 04:25:34;;;;;;;11.65;5.10;;;8.10;99.90;;;;;;5048077;28;20251;-69
2022/10/07 04:28:15;;;;;;;8.80;4.80;;;8.10;99.90;;;;;;5058782;28;20200;-69
2022/10/07 04:30:50;;;;;;;11.73;5.35;;;8.20;99.90;;;;;;5043562;28;20205;-69
2022/10/07 04:33:23;;;;;;;6.93;5.50;;;8.20;99.90;;;;;;5046742;28;20212;-68
2022/10/07 04:35:56;;;;;;;10.85;4.95;;;8.20;99.90;;;;;;5037322;28;20575;-70
2022/10/07 04:38:25;;;;;;;5.65;5.03;;;8.00;99.90;;;;;;5058027;28;20188;-69
2022/10/07 04:40:58;;;;;;;8.27;5.68;;;8.10;99.90;;;;;;5060570;28;20201;-69
2022/10/07 04:43:32;;;;;;;12.18;5.47;;;8.10;99.90;;;;;;5043480;28;20188;-69
2022/10/07 04:46:10;;;;;;;17.73;6.43;;;8.10;99.90;;;;;;5043947;28;20216;-69
2022/10/07 04:48:44;;;;;;;9.73;5.53;;;8.10;99.90;;;;;;5050314;28;20204;-70
2022/10/07 04:51:17;;;;;;;15.25;5.47;;;8.00;99.90;;;;;;5049968;28;20188;-70
2022/10/07 04:53:52;;;;;;;10.68;6.30;;;8.10;99.90;;;;;;5051002;28;20169;-69
2022/10/07 04:56:30;;;;;;;12.10;5.93;;;8.10;99.90;;;;;;5061073;28;20235;-69
2022/10/07 04:59:00;;;;;;;17.38;5.50;;;8.00;99.90;;;;;;5052153;28;20212;-69
2022/10/07 05:01:29;;;;;;;6.50;4.60;;;8.00;99.90;;;;;;5049159;28;20204;-70
2022/10/07 05:03:59;;;;;;;8.45;5.60;;;8.00;99.90;;;;;;5049329;28;20247;-69
2022/10/07 05:06:31;;;;;;;21.30;5.50;;;8.00;99.90;;;;;;5064642;28;20604;-68
2022/10/07 05:09:00;;;;;;;12.52;5.15;;;8.10;99.90;;;;;;5049099;28;20235;-69
2022/10/07 05:11:31;;;;;;;9.50;5.13;;;8.10;99.90;;;;;;5049365;28;20196;-69
2022/10/07 05:14:07;;;;;;;9.15;5.63;;;8.10;99.90;;;;;;5049300;28;20650;-68
2022/10/07 05:16:38;;;;;;;8.52;4.90;;;8.00;99.90;;;;;;5049515;28;20319;-69
2022/10/07 05:19:09;;;;;;;18.15;5.07;;;8.20;99.90;;;;;;5049439;28;20200;-68
2022/10/07 05:21:40;;;;;;;14.82;5.70;;;8.30;99.90;;;;;;5049695;28;20239;-69
2022/10/07 05:24:09;;;;;;;20.80;6.00;;;8.20;99.90;;;;;;5037689;28;20258;-70
2022/10/07 05:26:39;;;;;;;5.18;3.28;;;8.20;99.90;;;;;;5043354;28;20243;-70
2022/10/07 05:29:09;;;;;;;12.32;9.40;;;8.20;99.90;;;;;;5047583;28;20201;-70
2022/10/07 05:31:43;;;;;;;9.82;5.78;;;8.30;99.90;;;;;;5041058;28;20249;-70
2022/10/07 05:34:14;;;;;;;7.18;4.72;;;8.40;99.90;;;;;;5053665;28;20662;-70
2022/10/07 05:36:45;;;;;;;7.60;5.70;;;8.30;99.90;;;;;;5042746;28;21072;-70
2022/10/07 05:39:14;;;;;;;9.70;6.03;;;8.30;99.90;;;;;;5048122;28;20382;-70
2022/10/07 05:41:56;;;;;;;8.57;5.22;;;8.20;99.90;;;;;;5054189;28;20719;-70
2022/10/07 05:44:30;;;;;;;17.10;6.10;;;8.40;99.90;;;;;;5044165;28;20196;-70
2022/10/07 05:47:01;;;;;;;11.85;5.97;;;8.30;99.90;;;;;;5037736;28;20211;-70
2022/10/07 05:49:30;;;;;;;11.57;5.55;;;8.20;99.90;;;;;;5040684;28;20225;-70
2022/10/07 05:52:01;;;;;;;7.53;5.03;;;8.20;99.90;;;;;;5042436;28;20244;-71
2022/10/07 05:54:32;;;;;;;14.20;5.68;;;8.20;99.90;;;;;;5034181;28;20225;-69
2022/10/07 05:57:01;;;;;;;13.77;7.18;;;8.20;99.90;;;;;;5054845;28;20192;-69
2022/10/07 05:59:31;;;;;;;7.45;5.75;;;8.20;99.90;;;;;;5049790;28;20575;-71
2022/10/07 06:02:00;;;;;;;11.23;7.00;;;8.20;99.90;;;;;;5053344;28;20188;-71
2022/10/07 06:04:30;;;;;;;10.98;5.80;;;8.30;99.90;;;;;;5036762;28;20692;-71
2022/10/07 06:07:04;;;;;;;8.70;5.55;;;8.30;99.90;;;;;;5045855;28;20214;-71
2022/10/07 06:15:10;;;;;;;12.18;6.28;;;8.50;99.90;;;;;;5036362;28;20225;-71
2022/10/07 06:17:43;;;;;;;11.77;5.78;;;8.60;99.90;;;;;;5041248;28;20698;-71
2022/10/07 06:20:14;;;;;;;9.00;6.13;;;8.80;99.90;;;;;;5054180;28;20659;-70
2022/10/07 06:22:45;;;;;;;8.07;5.43;;;8.90;99.90;;;;;;5049913;28;20843;-70
2022/10/07 06:25:16;;;;;;;11.18;6.80;;;9.00;99.90;;;;;;5056396;28;20228;-71
2022/10/07 06:27:46;;;;;;;11.32;5.72;;;9.10;99.90;;;;;;5030168;28;20220;-70
2022/10/07 06:30:21;;;;;;;13.25;6.57;;;9.10;99.90;;;;;;5042649;28;20185;-70
2022/10/07 06:32:50;;;;;;;13.13;6.05;;;9.10;99.90;;;;;;5057027;28;20197;-70
2022/10/07 06:35:19;;;;;;;14.77;5.75;;;9.20;99.90;;;;;;5058375;28;20594;-70
2022/10/07 06:37:50;;;;;;;12.18;6.53;;;9.20;99.90;;;;;;5063827;28;20667;-70
2022/10/07 06:40:19;;;;;;;15.05;4.95;;;9.20;99.90;;;;;;5067850;28;20634;-70
2022/10/07 06:42:48;;;;;;;19.55;6.22;;;9.30;99.90;;;;;;5070089;28;20308;-70
2022/10/07 06:45:19;;;;;;;15.55;6.97;;;9.40;99.90;;;;;;5069960;28;20215;-68
2022/10/07 06:47:52;;;;;;;6.85;5.63;;;9.60;99.90;;;;;;5068589;28;20195;-68
2022/10/07 06:50:22;;;;;;;13.23;5.00;;;9.70;99.90;;;;;;5068216;28;20302;-68
2022/10/07 06:52:52;;;;;;;11.05;4.95;;;9.90;99.90;;;;;;5060021;28;20188;-68
2022/10/07 06:55:21;;;;;;;10.80;5.60;;;10.00;99.90;;;;;;5067874;28;20216;-68
2022/10/07 06:57:50;;;;;;;9.90;5.70;;;10.10;99.90;;;;;;5069378;28;20475;-69
2022/10/07 07:00:20;;;;;;;11.40;5.10;;;10.10;99.90;;;;;;5068097;28;20474;-69
2022/10/07 07:02:49;;;;;;;8.90;5.43;;;10.20;99.90;;;;;;5068109;28;20979;-69
2022/10/07 07:05:18;;;;;;;9.27;5.57;;;10.20;99.90;;;;;;5067682;28;20873;-69
2022/10/07 07:07:47;;;;;;;9.67;6.20;;;10.30;99.90;;;;;;5051734;28;20469;-69
2022/10/07 07:10:19;;;;;;;7.27;5.30;;;10.50;99.90;;;;;;5045265;28;20436;-71
2022/10/07 07:12:53;;;;;;;17.20;6.10;;;10.60;99.90;;;;;;5029625;28;20527;-69
2022/10/07 07:15:22;;;;;;;7.80;5.10;;;10.70;99.90;;;;;;5031012;28;20479;-71
2022/10/07 07:17:51;;;;;;;10.67;5.73;;;10.70;99.90;;;;;;5032842;28;20440;-70
2022/10/07 07:20:20;;;;;;;8.93;5.60;;;10.70;99.90;;;;;;5037143;28;20450;-69
2022/10/07 07:22:51;;;;;;;5.77;5.17;;;10.90;99.90;;;;;;5040518;28;20440;-68
2022/10/07 07:25:21;;;;;;;9.50;5.57;;;10.90;99.90;;;;;;5041641;28;20481;-70
2022/10/07 07:27:50;;;;;;;8.23;4.77;;;11.10;97.70;;;;;;5049864;28;20508;-70
2022/10/07 07:30:25;;;;;;;12.13;6.20;;;11.10;96.80;;;;;;5058135;28;20459;-70
2022/10/07 07:32:56;;;;;;;7.37;6.53;;;11.30;97.10;;;;;;5057330;28;20497;-70
2022/10/07 07:35:26;;;;;;;10.60;4.30;;;11.30;99.90;;;;;;5051545;28;20474;-69
2022/10/07 07:37:55;;;;;;;9.90;5.83;;;11.50;99.90;;;;;;5060618;28;20912;-69
2022/10/07 07:40:26;;;;;;;13.93;6.30;;;11.70;99.90;;;;;;5072902;28;20432;-69
2022/10/07 07:42:55;;;;;;;10.50;5.30;;;11.90;99.90;;;;;;5066209;28;20405;-70
2022/10/07 07:45:24;;;;;;;7.60;5.17;;;12.00;99.90;;;;;;5050956;28;20463;-69
2022/10/07 07:47:52;;;;;;;9.00;5.57;;;12.00;99.90;;;;;;5050583;28;20409;-68
2022/10/07 07:50:25;;;;;;;11.93;5.17;;;12.20;99.90;;;;;;5051766;28;20474;-69
2022/10/07 07:52:58;;;;;;;10.63;5.43;;;12.40;99.90;;;;;;5050306;28;20509;-69
2022/10/07 07:55:29;;;;;;;7.83;5.00;;;12.40;99.90;;;;;;5051701;28;20443;-69
2022/10/07 07:57:58;;;;;;;4.93;4.30;;;12.40;99.90;;;;;;5051678;28;20465;-69
2022/10/07 08:00:27;;;;;;;24.57;5.07;;;12.50;99.90;;;;;;5050790;28;20431;-71
2022/10/07 08:03:03;;;;;;;8.63;5.30;;;12.50;99.90;;;;;;5051333;28;20445;-69
2022/10/07 08:05:35;;;;;;;6.53;4.63;;;12.80;99.90;;;;;;5051142;28;20811;-70
2022/10/07 08:08:04;;;;;;;11.40;5.73;;;13.00;99.90;;;;;;5051637;28;20423;-70
2022/10/07 08:10:35;;;;;;;7.47;4.97;;;13.00;99.90;;;;;;5040977;28;21010;-70
2022/10/07 08:13:04;;;;;;;8.60;5.17;;;13.10;99.90;;;;;;5030316;28;20429;-70
2022/10/07 08:15:33;;;;;;;16.03;5.33;;;13.20;99.90;;;;;;5039252;28;20558;-70
2022/10/07 08:18:03;;;;;;;10.97;5.20;;;13.30;99.90;;;;;;5049922;28;20971;-70
2022/10/07 08:20:32;;;;;;;7.93;4.37;;;13.50;99.90;;;;;;5049933;28;20922;-70
2022/10/07 08:23:01;;;;;;;9.17;5.20;;;13.50;99.90;;;;;;5049972;28;20432;-70
2022/10/07 08:25:30;;;;;;;8.60;5.47;;;13.60;99.90;;;;;;5050448;28;20462;-70
2022/10/07 08:28:03;;;;;;;7.00;4.87;;;13.80;99.90;;;;;;5050187;28;20481;-70
2022/10/07 08:30:32;;;;;;;12.13;6.00;;;13.80;99.90;;;;;;5050001;28;20458;-70
2022/10/07 08:33:01;;;;;;;11.03;5.50;;;13.90;99.90;;;;;;5033596;28;20444;-70
2022/10/07 08:35:30;;;;;;;9.13;4.63;;;13.90;99.90;;;;;;5038909;28;20427;-70
2022/10/07 08:37:58;;;;;;;5.43;3.90;;;14.10;99.90;;;;;;5066273;28;20513;-70
2022/10/07 08:40:27;;;;;;;13.40;5.73;;;14.20;99.90;;;;;;5073101;28;20467;-70
2022/10/07 08:42:58;;;;;;;13.83;4.40;;;14.30;99.90;;;;;;5055202;28;20837;-70
2022/10/07 08:45:31;;;;;;;7.20;3.90;;;14.40;99.90;;;;;;5051989;28;20947;-70
2022/10/07 08:48:03;;;;;;;9.43;4.33;;;14.40;99.90;;;;;;5051252;28;20941;-72
2022/10/07 08:50:42;;;;;;;6.73;4.13;;;14.50;99.90;;;;;;5033691;22;20499;-68
2022/10/07 08:53:19;;;;;;;8.00;4.63;;;14.60;99.90;;;;;;5019682;28;20503;-69
2022/10/07 08:55:52;;;;;;;7.70;4.40;;;14.70;34.50;;;;;;5008187;28;20452;-68
2022/10/07 08:58:44;;;;;;;7.53;3.90;;;14.80;39.00;;;;;;4997407;28;20443;-69
2022/10/07 09:01:24;;;;;;;14.60;4.10;;;14.90;99.90;;;;;;4989480;28;20455;-69
2022/10/07 09:04:03;;;;;;;5.17;3.70;;;15.00;99.90;;;;;;4994505;28;20421;-68
2022/10/07 09:06:36;;;;;;;6.50;3.63;;;15.20;99.90;;;;;;4987881;28;20438;-68
2022/10/07 09:09:14;;;;;;;8.40;3.60;;;15.40;12.60;;;;;;4993703;28;20528;-69
2022/10/07 09:11:46;;;;;;;7.37;3.53;;;15.50;10.70;;;;;;5006929;28;20811;-68
2022/10/07 09:14:24;;;;;;;7.40;3.23;;;15.50;8.10;;;;;;5002673;28;20442;-69
2022/10/07 09:16:58;;;;;;;3.20;2.20;;;15.40;7.00;;;;;;4991397;28;20657;-68
2022/10/07 09:19:31;;;;;;;5.27;3.03;;;15.50;6.40;;;;;;4998826;28;20403;-68
2022/10/07 09:22:07;;;;;;;8.93;3.07;;;15.60;5.50;;;;;;4995167;28;20433;-69
2022/10/07 09:24:36;;;;;;;5.50;2.67;;;15.70;3.20;;;;;;5001706;28;20465;-68
2022/10/07 09:27:13;;;;;;;8.23;3.67;;;15.70;1.70;;;;;;4982155;28;20435;-69
2022/10/07 09:29:41;;;;;;;9.77;3.37;;;15.80;1.10;;;;;;4998878;28;20474;-69
2022/10/07 09:32:13;;;;;;;5.17;3.87;;;15.90;1.00;;;;;;4996881;28;20443;-69
2022/10/07 09:34:41;;;;;;;7.90;3.60;;;15.90;1.00;;;;;;4987790;28;20829;-70
2022/10/07 09:37:22;;;;;;;7.33;3.90;;;16.10;1.00;;;;;;5003258;28;20441;-69
2022/10/07 09:39:52;;;;;;;5.63;3.87;;;16.10;1.00;;;;;;4987529;28;20425;-68
2022/10/07 09:42:33;;;;;;;8.33;3.07;;;16.10;1.00;;;;;;4997720;28;20791;-69
2022/10/07 09:45:17;;;;;;;9.13;2.37;;;16.30;1.00;;;;;;4997516;28;20518;-68
2022/10/07 09:47:51;;;;;;;3.87;2.67;;;16.40;1.00;;;;;;4984029;28;20448;-68
2022/10/07 09:50:37;;;;;;;3.30;2.90;;;16.60;1.00;;;;;;4971141;28;20525;-68
2022/10/07 09:53:15;;;;;;;3.43;2.43;;;16.70;1.00;;;;;;5007426;28;20456;-70
2022/10/07 09:55:44;;;;;;;8.93;2.77;;;16.80;1.00;;;;;;5009086;28;20526;-69
2022/10/07 09:58:22;;;;;;;6.33;2.73;;;17.00;1.00;;;;;;4986715;28;20407;-69
2022/10/07 10:00:54;;;;;;;3.47;1.97;;;17.10;1.00;;;;;;5005343;28;20442;-68
2022/10/07 10:03:29;;;;;;;7.73;2.57;;;17.00;1.00;;;;;;4996070;28;20441;-69
2022/10/07 10:06:00;;;;;;;5.20;2.40;;;17.00;1.00;;;;;;4995858;28;20464;-66
2022/10/07 10:08:30;;;;;;;5.97;2.30;;;17.10;1.00;;;;;;4979479;28;20524;-69
2022/10/07 10:11:01;;;;;;;5.47;2.67;;;17.00;1.00;;;;;;4984016;28;20480;-67
2022/10/07 10:13:34;;;;;;;2.50;2.20;;;17.00;1.00;;;;;;4979339;28;20423;-67
2022/10/07 10:16:06;;;;;;;6.40;2.53;;;17.00;1.00;;;;;;5002624;28;20481;-67
2022/10/07 10:18:39;;;;;;;5.10;2.90;;;17.20;1.00;;;;;;4992124;28;20393;-68
2022/10/07 10:21:28;;;;;;;7.43;2.37;;;17.30;1.00;;;;;;4995754;28;20450;-68
2022/10/07 10:23:59;;;;;;;3.53;2.27;;;17.40;1.00;;;;;;4980033;28;20437;-68
2022/10/07 10:26:40;;;;;;;4.30;2.47;;;17.40;1.00;;;;;;4997519;28;20435;-68
2022/10/07 10:29:42;;;;;;;8.80;2.90;;;17.50;1.00;;;;;;4971657;28;20676;-68
2022/10/07 10:32:48;;;;;;;5.23;2.13;;;17.60;1.00;;;;;;5001640;28;20476;-68
2022/10/07 10:35:24;;;;;;;4.20;2.50;;;17.70;1.00;;;;;;4991980;28;20457;-68
2022/10/07 10:38:25;;;;;;;4.53;2.70;;;17.70;1.00;;;;;;4987330;28;20524;-68
2022/10/07 10:41:02;;;;;;;4.07;3.13;;;17.70;1.00;;;;;;4978654;28;20425;-68
2022/10/07 10:43:45;;;;;;;5.53;1.80;;;17.70;1.00;;;;;;4991953;28;20432;-68
2022/10/07 10:46:35;;;;;;;7.20;2.27;;;17.90;1.00;;;;;;4993623;28;20969;-69
2022/10/07 10:49:18;;;;;;;6.00;3.43;;;17.90;1.00;;;;;;5007763;28;20527;-67
2022/10/07 10:52:19;;;;;;;7.20;2.20;;;18.00;1.00;;;;;;4983283;28;20476;-67
2022/10/07 10:55:03;;;;;;;3.30;1.93;;;18.00;1.00;;;;;;4976415;28;20860;-67
2022/10/07 10:57:42;;;;;;;5.10;2.40;;;17.90;1.00;;;;;;5005689;28;20809;-68
2022/10/07 11:00:13;;;;;;;11.13;2.93;;;18.00;1.00;;;;;;5005462;28;20412;-68
2022/10/07 11:03:04;;;;;;;5.13;2.27;;;18.10;1.00;;;;;;4999524;28;20836;-68
2022/10/07 11:05:36;;;;;;;6.70;2.57;;;18.20;1.00;;;;;;5002078;28;20448;-68
2022/10/07 11:08:12;;;;;;;8.70;2.67;;;18.20;1.00;;;;;;5006443;28;20464;-68
2022/10/07 11:10:46;;;;;;;4.33;2.67;;;18.30;1.00;;;;;;5005742;28;20452;-68
2022/10/07 11:13:29;;;;;;;4.27;2.67;;;18.30;1.00;;;;;;4991164;28;20512;-68
2022/10/07 11:16:04;;;;;;;6.60;2.30;;;18.20;1.00;;;;;;4988017;28;20481;-68
2022/10/07 11:18:40;;;;;;;5.00;1.43;;;18.10;1.00;;;;;;4985768;28;20429;-68
2022/10/07 11:21:14;;;;;;;5.70;1.87;;;18.10;1.00;;;;;;4986379;28;20480;-68
2022/10/07 11:23:51;;;;;;;4.20;2.30;;;18.10;1.00;;;;;;4992649;28;20726;-68
2022/10/07 11:26:26;;;;;;;3.50;2.07;;;18.20;1.00;;;;;;4986212;28;20548;-67
2022/10/07 11:29:12;;;;;;;5.60;2.20;;;18.30;1.00;;;;;;4994791;28;20418;-67
2022/10/07 11:31:46;;;;;;;4.53;2.23;;;18.50;1.00;;;;;;5005400;28;20447;-67
2022/10/07 11:34:17;;;;;;;7.40;2.03;;;18.40;1.00;;;;;;5012907;28;20443;-68
2022/10/07 11:36:54;;;;;;;3.60;1.90;;;18.40;1.00;;;;;;5001303;28;20436;-68
2022/10/07 11:39:24;;;;;;;4.13;1.80;;;18.60;1.00;;;;;;4987266;28;20404;-67
2022/10/07 11:42:00;;;;;;;5.20;2.43;;;18.60;1.00;;;;;;5001635;28;20435;-67
2022/10/07 11:44:35;;;;;;;5.90;2.20;;;18.60;1.00;;;;;;5000812;28;20916;-68
2022/10/07 11:47:11;;;;;;;4.43;2.07;;;18.70;1.00;;;;;;4995155;28;20422;-68
2022/10/07 11:49:47;;;;;;;4.03;2.30;;;18.60;1.00;;;;;;4998296;28;21031;-67
2022/10/07 11:52:25;;;;;;;3.90;2.60;;;18.60;1.00;;;;;;4990661;28;20476;-67
2022/10/07 11:55:02;;;;;;;5.03;2.30;;;18.60;1.00;;;;;;4993706;28;20479;-67
2022/10/07 11:57:34;;;;;;;2.43;1.50;;;18.50;1.00;;;;;;4985089;28;20448;-67
2022/10/07 12:00:07;;;;;;;4.17;2.43;;;18.60;1.00;;;;;;4992021;28;20492;-69
2022/10/07 12:02:44;;;;;;;17.03;2.30;;;18.60;1.00;;;;;;4994248;28;20852;-68
2022/10/07 12:06:05;;;;;;;5.30;3.30;;;18.50;1.00;;;;;;5005519;28;20416;-68
2022/10/07 12:08:35;;;;;;;8.40;2.60;;;18.40;1.00;;;;;;4996674;28;20433;-68
2022/10/07 12:11:43;;;;;;;3.27;2.20;;;18.50;1.00;;;;;;5012421;28;20460;-68
2022/10/07 12:14:43;;;;;;;3.17;1.67;;;18.60;1.00;;;;;;4960772;28;20439;-69
2022/10/07 12:17:22;;;;;;;5.20;2.27;;;18.60;1.00;;;;;;4955801;28;20471;-68
2022/10/07 12:20:36;;;;;;;5.23;2.70;;;18.60;1.00;;;;;;5014449;28;20447;-68
2022/10/07 12:23:49;;;;;;;2.23;1.40;;;18.60;1.00;;;;;;4991992;28;20932;-68
2022/10/07 12:26:51;;;;;;;5.27;2.30;;;18.70;1.00;;;;;;4992884;28;20472;-68
2022/10/07 12:29:23;;;;;;;2.80;1.80;;;18.70;1.00;;;;;;4994361;28;20441;-68
2022/10/07 12:31:53;;;;;;;5.40;3.10;;;18.80;1.00;;;;;;4997781;28;20505;-67
2022/10/07 12:34:29;;;;;;;6.03;2.50;;;18.80;1.00;;;;;;4998677;28;20894;-68
2022/10/07 12:37:28;;;;;;;5.97;2.57;;;18.70;1.00;;;;;;5002188;28;20434;-68
2022/10/07 12:39:59;;;;;;;5.40;2.50;;;18.60;1.00;;;;;;4953420;28;20780;-68
2022/10/07 12:42:28;;;;;;;4.17;2.20;;;18.60;1.00;;;;;;4998112;28;20456;-67
2022/10/07 12:44:59;;;;;;;5.20;2.87;;;18.70;1.00;;;;;;5000041;28;20506;-68
2022/10/07 12:47:29;;;;;;;4.93;2.10;;;18.60;1.00;;;;;;5001853;28;20472;-68
2022/10/07 12:50:07;;;;;;;4.90;2.80;;;18.60;1.00;;;;;;4990971;28;20465;-68
2022/10/07 12:52:44;;;;;;;4.13;2.37;;;18.70;1.00;;;;;;4996050;28;20495;-68
2022/10/07 12:55:19;;;;;;;5.37;2.83;;;18.70;1.00;;;;;;4997543;28;20450;-69
2022/10/07 12:57:51;;;;;;;4.53;2.30;;;18.70;1.00;;;;;;4997667;28;20529;-67
2022/10/07 13:00:23;;;;;;;4.30;2.23;;;18.80;1.00;;;;;;4998017;28;20419;-69
2022/10/07 13:03:35;;;;;;;3.00;2.30;;;18.70;1.00;;;;;;4985761;28;20474;-68
2022/10/07 13:06:42;;;;;;;8.87;2.70;;;18.70;1.00;;;;;;4991663;28;20465;-68
2022/10/07 13:09:31;;;;;;;4.40;1.90;;;18.70;1.00;;;;;;4992826;28;20458;-68
2022/10/07 13:12:28;;;;;;;4.50;2.00;;;18.70;1.00;;;;;;4996947;28;20855;-68
2022/10/07 13:15:20;;;;;;;7.00;2.57;;;18.80;1.00;;;;;;4995417;28;20556;-68
2022/10/07 13:17:57;;;;;;;6.13;2.90;;;18.80;1.00;;;;;;4985483;28;20446;-69
2022/10/07 13:20:38;;;;;;;3.40;2.90;;;18.70;1.00;;;;;;5002698;28;20817;-68
2022/10/07 13:23:16;;;;;;;4.37;2.07;;;18.70;1.00;;;;;;4993539;28;20537;-68
2022/10/07 13:25:48;;;;;;;4.07;3.50;;;18.80;1.00;;;;;;5003084;28;20468;-67
2022/10/07 13:28:21;;;;;;;3.30;2.43;;;18.80;1.00;;;;;;4996470;28;20573;-68
2022/10/07 13:30:51;;;;;;;5.43;2.10;;;18.70;1.00;;;;;;4986145;28;20413;-68
2022/10/07 13:33:26;;;;;;;5.50;2.67;;;18.80;1.00;;;;;;4996382;28;20451;-67
2022/10/07 13:36:15;;;;;;;2.50;2.00;;;18.70;1.00;;;;;;5010604;28;20439;-67